Time;durP1;ratioP1;P1;durP2;ratioP2;P2;SDS_P1;SDS_P2;PMS_P1;PMS_P2;Temp;Humidity;BMP_temperature;BMP_pressure;BME280_temperature;BME280_humidity;BME280_pressure;Samples;Min_cycle;Max_cycle;Signal;HPM_P1;HPM_P2
2023/07/09 00:02:19;;;;;;;;;;;;;;;22.74;48.68;100002.63;4494434;31;33330;-75
2023/07/09 00:04:49;;;;;;;;;;;;;;;22.74;47.73;100008.75;4504929;31;33306;-74
2023/07/09 00:07:23;;;;;;;;;;;;;;;22.84;48.57;100016.16;4505763;31;34312;-75
2023/07/09 00:09:54;;;;;;;;;;;;;;;22.67;48.62;100011.84;4503995;31;34301;-75
2023/07/09 00:12:24;;;;;;;;;;;;;;;22.95;46.35;100006.66;4499190;31;33961;-74
2023/07/09 00:14:54;;;;;;;;;;;;;;;22.88;47.16;100007.97;4499148;31;33880;-74
2023/07/09 00:17:26;;;;;;;;;;;;;;;22.84;47.67;100014.34;4513176;31;32348;-74
2023/07/09 00:19:55;;;;;;;;;;;;;;;22.78;47.43;100017.34;4493921;31;33945;-75
2023/07/09 00:22:26;;;;;;;;;;;;;;;22.66;47.70;100013.63;4511809;31;33998;-75
2023/07/09 00:24:57;;;;;;;;;;;;;;;22.60;47.72;100010.50;4501810;31;33482;-73
2023/07/09 00:27:27;;;;;;;;;;;;;;;22.73;47.39;100017.63;4505574;31;34214;-74
2023/07/09 00:29:57;;;;;;;;;;;;;;;22.71;48.16;100003.66;4494279;31;33780;-74
2023/07/09 00:32:29;;;;;;;;;;;;;;;22.76;47.50;100006.00;4509965;31;34324;-75
2023/07/09 00:35:00;;;;;;;;;;;;;;;22.59;47.87;99999.06;4499605;31;34694;-74
2023/07/09 00:37:29;;;;;;;;;;;;;;;22.74;47.72;100010.56;4499241;31;33582;-75
2023/07/09 00:39:59;;;;;;;;;;;;;;;22.77;47.51;100013.00;4509529;31;33737;-75
2023/07/09 00:42:31;;;;;;;;;;;;;;;22.62;47.44;100003.34;4504015;31;33575;-75
2023/07/09 00:45:00;;;;;;;;;;;;;;;22.69;47.52;100008.19;4499671;31;34321;-75
2023/07/09 00:47:32;;;;;;;;;;;;;;;22.41;48.18;100008.06;4500618;31;33063;-76
2023/07/09 00:50:03;;;;;;;;;;;;;;;22.31;48.71;100013.03;4499164;31;34057;-75
2023/07/09 00:52:35;;;;;;;;;;;;;;;22.37;49.95;100010.91;4501335;31;34093;-74
2023/07/09 00:55:07;;;;;;;;;;;;;;;22.46;48.34;100009.50;4509771;31;33347;-75
2023/07/09 00:57:41;;;;;;;;;;;;;;;22.40;48.14;100004.56;4509301;31;33451;-74
2023/07/09 01:00:14;;;;;;;;;;;;;;;22.31;49.24;100002.44;4500796;31;33227;-74
2023/07/09 01:02:45;;;;;;;;;;;;;;;22.35;49.38;100002.19;4509072;31;33853;-73
2023/07/09 01:05:17;;;;;;;;;;;;;;;22.41;49.34;100006.28;4500636;31;34136;-73
2023/07/09 01:07:48;;;;;;;;;;;;;;;22.33;49.49;100004.06;4502375;31;33904;-76
2023/07/09 01:10:24;;;;;;;;;;;;;;;22.17;49.32;100011.97;4500174;31;35648;-73
2023/07/09 01:12:53;;;;;;;;;;;;;;;22.39;48.81;100000.22;4494843;31;34935;-75
2023/07/09 01:15:24;;;;;;;;;;;;;;;22.26;48.83;100004.50;4494236;31;33738;-74
2023/07/09 01:17:53;;;;;;;;;;;;;;;22.29;48.52;99999.03;4494104;31;33091;-75
2023/07/09 01:20:23;;;;;;;;;;;;;;;22.16;49.10;100010.28;4499621;31;35093;-75
2023/07/09 01:22:56;;;;;;;;;;;;;;;22.17;48.72;100006.69;4493894;31;34003;-73
2023/07/09 01:25:30;;;;;;;;;;;;;;;22.26;50.09;99996.59;4494161;31;35282;-74
2023/07/09 01:28:02;;;;;;;;;;;;;;;22.22;49.80;99997.69;4511119;31;34039;-74
2023/07/09 01:30:34;;;;;;;;;;;;;;;22.36;49.58;100003.88;4509897;31;34990;-74
2023/07/09 01:33:09;;;;;;;;;;;;;;;22.41;49.81;100006.28;4515457;31;34710;-74
2023/07/09 01:35:41;;;;;;;;;;;;;;;22.17;49.08;100009.31;4509717;31;33648;-76
2023/07/09 01:38:16;;;;;;;;;;;;;;;22.37;49.50;100007.38;4509642;31;33711;-74
2023/07/09 01:40:47;;;;;;;;;;;;;;;22.27;48.46;100001.75;4509361;31;34084;-74
2023/07/09 01:43:20;;;;;;;;;;;;;;;22.27;49.46;100006.19;4514052;31;34544;-74
2023/07/09 01:45:57;;;;;;;;;;;;;;;22.08;49.12;100017.75;4515179;31;34017;-75
2023/07/09 01:48:27;;;;;;;;;;;;;;;22.24;48.25;100016.94;4510134;31;33662;-76
2023/07/09 01:51:05;;;;;;;;;;;;;;;22.22;48.92;100021.47;4495332;31;33818;-75
2023/07/09 01:53:36;;;;;;;;;;;;;;;22.04;49.62;100018.88;4496038;31;35111;-76
2023/07/09 01:56:07;;;;;;;;;;;;;;;22.11;50.31;100024.69;4499852;31;35024;-74
2023/07/09 01:58:41;;;;;;;;;;;;;;;22.07;50.43;100021.34;4499574;31;32894;-75
2023/07/09 02:01:11;;;;;;;;;;;;;;;22.06;50.39;100021.44;4495341;31;34723;-74
2023/07/09 02:03:43;;;;;;;;;;;;;;;22.10;50.74;100029.09;4499595;31;35548;-76
2023/07/09 02:06:12;;;;;;;;;;;;;;;22.09;50.50;100024.75;4495800;31;34263;-74
2023/07/09 02:08:43;;;;;;;;;;;;;;;22.12;50.70;100024.59;4498737;31;34479;-74
2023/07/09 02:11:11;;;;;;;;;;;;;;;22.05;50.29;100027.66;4492603;31;33979;-75
2023/07/09 02:13:43;;;;;;;;;;;;;;;22.08;50.57;100024.84;4497192;31;34770;-75
2023/07/09 02:16:12;;;;;;;;;;;;;;;22.00;50.19;100027.91;4498861;31;34503;-74
2023/07/09 02:18:44;;;;;;;;;;;;;;;21.88;50.76;100031.22;4504451;31;32927;-75
2023/07/09 02:21:13;;;;;;;;;;;;;;;22.01;50.17;100032.28;4497702;31;34480;-73
2023/07/09 02:23:45;;;;;;;;;;;;;;;21.84;49.74;100032.31;4492739;31;34229;-75
2023/07/09 02:26:13;;;;;;;;;;;;;;;21.84;50.86;100030.56;4493590;31;34039;-75
2023/07/09 02:28:44;;;;;;;;;;;;;;;21.94;50.33;100031.75;4503661;31;33437;-75
2023/07/09 02:31:15;;;;;;;;;;;;;;;22.07;49.84;100033.72;4498635;31;33597;-74
2023/07/09 02:33:45;;;;;;;;;;;;;;;21.92;49.88;100041.53;4494723;31;34777;-74
2023/07/09 02:36:17;;;;;;;;;;;;;;;21.84;49.80;100035.84;4502321;31;34065;-74
2023/07/09 02:38:49;;;;;;;;;;;;;;;22.05;48.46;100038.22;4498556;31;33110;-74
2023/07/09 02:41:17;;;;;;;;;;;;;;;21.89;49.82;100040.84;4494038;31;34868;-75
2023/07/09 02:43:48;;;;;;;;;;;;;;;21.96;49.34;100042.22;4505849;31;34218;-76
2023/07/09 02:46:20;;;;;;;;;;;;;;;21.75;49.69;100033.69;4493572;31;34827;-74
2023/07/09 02:48:49;;;;;;;;;;;;;;;21.75;49.21;100038.97;4496650;31;32995;-74
2023/07/09 02:51:18;;;;;;;;;;;;;;;21.50;50.85;100032.38;4494000;31;34926;-74
2023/07/09 02:53:56;;;;;;;;;;;;;;;21.83;50.33;100042.03;4510217;31;34810;-76
2023/07/09 02:56:26;;;;;;;;;;;;;;;21.88;50.93;100040.00;4495944;31;33723;-76
2023/07/09 02:58:55;;;;;;;;;;;;;;;21.80;50.42;100039.56;4501153;31;33573;-74
2023/07/09 03:01:26;;;;;;;;;;;;;;;21.69;51.08;100040.13;4505261;31;33982;-74
2023/07/09 03:03:56;;;;;;;;;;;;;;;21.91;50.75;100047.75;4495067;31;33612;-75
2023/07/09 03:06:25;;;;;;;;;;;;;;;21.82;50.90;100044.75;4511308;31;34123;-75
2023/07/09 03:08:55;;;;;;;;;;;;;;;21.76;50.83;100045.09;4497737;31;33786;-76
2023/07/09 03:11:25;;;;;;;;;;;;;;;21.72;49.98;100045.28;4494493;31;33827;-74
2023/07/09 03:13:54;;;;;;;;;;;;;;;21.82;50.16;100050.91;4494343;31;34106;-75
2023/07/09 03:16:28;;;;;;;;;;;;;;;21.68;50.14;100049.00;4499327;31;33467;-75
2023/07/09 03:19:03;;;;;;;;;;;;;;;21.59;51.03;100060.06;4493125;31;32650;-75
2023/07/09 03:21:32;;;;;;;;;;;;;;;21.60;50.18;100050.34;4493450;31;33708;-76
2023/07/09 03:24:05;;;;;;;;;;;;;;;21.68;49.78;100054.28;4495083;31;33870;-74
2023/07/09 03:26:33;;;;;;;;;;;;;;;21.56;51.15;100060.22;4497806;31;34770;-75
2023/07/09 03:29:03;;;;;;;;;;;;;;;21.42;51.82;100062.72;4500374;31;33257;-74
2023/07/09 03:31:34;;;;;;;;;;;;;;;21.38;51.22;100061.13;4496285;31;34617;-74
2023/07/09 03:34:06;;;;;;;;;;;;;;;21.40;50.89;100062.81;4494608;31;34276;-74
2023/07/09 03:36:37;;;;;;;;;;;;;;;21.50;51.46;100057.87;4499088;31;33849;-74
2023/07/09 03:39:08;;;;;;;;;;;;;;;21.51;50.63;100062.25;4498440;31;33536;-75
2023/07/09 03:41:37;;;;;;;;;;;;;;;21.47;51.34;100065.97;4499916;31;33829;-74
2023/07/09 03:44:09;;;;;;;;;;;;;;;21.35;50.84;100061.31;4495744;31;33767;-74
2023/07/09 03:46:37;;;;;;;;;;;;;;;21.50;51.30;100060.53;4502787;31;33767;-74
2023/07/09 03:49:08;;;;;;;;;;;;;;;21.40;51.42;100065.44;4498803;31;33354;-74
2023/07/09 03:51:36;;;;;;;;;;;;;;;21.51;52.14;100065.75;4515963;31;34241;-73
2023/07/09 03:54:07;;;;;;;;;;;;;;;21.63;50.38;100058.13;4500379;31;34904;-75
2023/07/09 03:56:41;;;;;;;;;;;;;;;21.53;50.46;100060.38;4503657;31;34169;-74
2023/07/09 03:59:11;;;;;;;;;;;;;;;21.48;51.42;100057.09;4509633;31;33350;-78
2023/07/09 04:01:45;;;;;;;;;;;;;;;21.54;51.90;100056.81;4496025;31;34668;-74
2023/07/09 04:04:22;;;;;;;;;;;;;;;21.70;50.91;100055.06;4498544;31;33504;-75
2023/07/09 04:06:52;;;;;;;;;;;;;;;21.86;51.44;100056.88;4495675;31;33797;-75
2023/07/09 04:09:24;;;;;;;;;;;;;;;21.93;51.11;100052.97;4496841;31;32306;-75
2023/07/09 04:11:55;;;;;;;;;;;;;;;21.92;50.94;100053.91;4495141;31;34170;-74
2023/07/09 04:14:23;;;;;;;;;;;;;;;22.06;51.12;100054.00;4503050;31;34222;-74
2023/07/09 04:17:00;;;;;;;;;;;;;;;22.19;50.74;100058.63;4498715;31;34135;-74
2023/07/09 04:19:28;;;;;;;;;;;;;;;22.07;50.00;100060.13;4498686;31;34164;-73
2023/07/09 04:21:59;;;;;;;;;;;;;;;22.20;50.46;100060.31;4494472;31;34690;-75
2023/07/09 04:24:28;;;;;;;;;;;;;;;22.22;50.10;100056.66;4494273;31;33126;-75
2023/07/09 04:27:06;;;;;;;;;;;;;;;22.34;49.19;100063.06;4510404;31;34383;-75
2023/07/09 04:29:35;;;;;;;;;;;;;;;22.44;50.70;100058.13;4498042;31;34273;-75
2023/07/09 04:32:15;;;;;;;;;;;;;;;22.42;49.72;100055.53;4494504;31;34112;-74
2023/07/09 04:34:45;;;;;;;;;;;;;;;22.57;49.55;100057.34;4493052;31;34185;-75
2023/07/09 04:37:16;;;;;;;;;;;;;;;22.79;49.23;100058.75;4498956;31;32488;-74
2023/07/09 04:39:49;;;;;;;;;;;;;;;23.00;49.19;100056.66;4499828;31;32371;-74
2023/07/09 04:42:19;;;;;;;;;;;;;;;23.32;48.08;100054.75;4469533;32;33808;-75
2023/07/09 04:44:50;;;;;;;;;;;;;;;23.90;46.12;100052.16;4464453;32;33712;-75
2023/07/09 04:47:19;;;;;;;;;;;;;;;24.75;44.12;100058.19;4471891;32;33875;-76
2023/07/09 04:49:47;;;;;;;;;;;;;;;25.46;42.05;100052.47;4468907;32;33040;-76
2023/07/09 04:52:17;;;;;;;;;;;;;;;26.09;40.91;100063.16;4481166;32;34717;-75
2023/07/09 04:54:50;;;;;;;;;;;;;;;26.73;39.67;100055.81;4467990;32;34762;-75
2023/07/09 04:57:20;;;;;;;;;;;;;;;27.36;37.92;100067.03;4479176;32;33983;-75
2023/07/09 04:59:50;;;;;;;;;;;;;;;27.77;36.99;100070.94;4477343;32;33639;-76
2023/07/09 05:02:20;;;;;;;;;;;;;;;28.04;36.24;100064.41;4475031;32;34093;-75
2023/07/09 05:04:50;;;;;;;;;;;;;;;28.44;35.99;100070.03;4475443;32;34366;-76
2023/07/09 05:07:20;;;;;;;;;;;;;;;28.88;34.96;100065.53;4477069;32;33294;-74
2023/07/09 05:09:49;;;;;;;;;;;;;;;29.08;34.47;100068.38;4476039;32;33603;-75
2023/07/09 05:12:26;;;;;;;;;;;;;;;29.28;34.36;100072.03;4469200;32;33919;-75
2023/07/09 05:14:56;;;;;;;;;;;;;;;29.14;34.51;100065.22;4478668;32;35011;-74
2023/07/09 05:17:25;;;;;;;;;;;;;;;29.06;34.60;100072.97;4469133;32;33864;-75
2023/07/09 05:19:54;;;;;;;;;;;;;;;28.98;35.00;100068.28;4463684;32;33363;-75
2023/07/09 05:22:24;;;;;;;;;;;;;;;28.78;35.69;100074.44;4469076;32;34146;-75
2023/07/09 05:24:52;;;;;;;;;;;;;;;28.62;35.78;100075.72;4480066;32;35216;-76
2023/07/09 05:27:22;;;;;;;;;;;;;;;28.32;36.49;100070.19;4473423;32;33738;-75
2023/07/09 05:29:52;;;;;;;;;;;;;;;28.04;37.57;100073.25;4470022;32;32697;-75
2023/07/09 05:32:26;;;;;;;;;;;;;;;28.07;37.16;100075.69;4466626;32;34684;-75
2023/07/09 05:34:58;;;;;;;;;;;;;;;28.11;37.46;100073.63;4470171;32;33504;-76
2023/07/09 05:37:31;;;;;;;;;;;;;;;28.14;36.92;100069.88;4482592;32;34796;-76
2023/07/09 05:40:01;;;;;;;;;;;;;;;28.21;36.54;100071.06;4472762;31;32787;-77
2023/07/09 05:42:31;;;;;;;;;;;;;;;28.23;35.90;100079.78;4504838;31;34022;-76
2023/07/09 05:45:04;;;;;;;;;;;;;;;28.27;36.79;100081.22;4501545;31;34033;-76
2023/07/09 05:47:35;;;;;;;;;;;;;;;28.41;36.78;100080.09;4499507;31;34691;-75
2023/07/09 05:50:06;;;;;;;;;;;;;;;28.59;36.12;100080.47;4497239;31;33049;-76
2023/07/09 05:52:34;;;;;;;;;;;;;;;28.66;35.80;100077.16;4494100;31;33949;-76
2023/07/09 05:55:09;;;;;;;;;;;;;;;28.63;35.97;100081.88;4495807;31;34840;-76
2023/07/09 05:57:38;;;;;;;;;;;;;;;28.61;35.79;100086.50;4514893;31;34862;-76
2023/07/09 06:00:13;;;;;;;;;;;;;;;28.48;35.44;100082.19;4502847;31;33290;-75
2023/07/09 06:02:41;;;;;;;;;;;;;;;28.50;35.43;100088.25;4493098;31;34021;-75
2023/07/09 06:05:10;;;;;;;;;;;;;;;28.53;35.16;100088.97;4499932;31;33929;-76
2023/07/09 06:07:39;;;;;;;;;;;;;;;28.54;34.71;100087.97;4496660;31;33997;-75
2023/07/09 06:10:09;;;;;;;;;;;;;;;28.45;35.58;100094.91;4499760;31;33031;-76
2023/07/09 06:12:40;;;;;;;;;;;;;;;28.19;36.10;100078.34;4504357;31;34691;-75
2023/07/09 06:15:09;;;;;;;;;;;;;;;28.29;36.71;100088.16;4505523;31;33782;-74
2023/07/09 06:17:42;;;;;;;;;;;;;;;28.33;36.27;100091.41;4508070;31;34551;-75
2023/07/09 06:20:15;;;;;;;;;;;;;;;28.01;37.01;100084.19;4498039;31;32346;-75
2023/07/09 06:22:44;;;;;;;;;;;;;;;27.71;38.07;100091.91;4497858;31;34942;-75
2023/07/09 06:25:13;;;;;;;;;;;;;;;27.84;38.10;100088.19;4493732;31;33835;-76
2023/07/09 06:27:43;;;;;;;;;;;;;;;27.88;37.85;100088.78;4494828;31;32975;-76
2023/07/09 06:30:14;;;;;;;;;;;;;;;28.03;37.76;100084.06;4496294;31;32911;-76
2023/07/09 06:32:44;;;;;;;;;;;;;;;27.87;37.71;100095.09;4505335;31;33840;-76
2023/07/09 06:35:13;;;;;;;;;;;;;;;27.78;38.48;100096.62;4500676;31;34577;-74
2023/07/09 06:37:45;;;;;;;;;;;;;;;27.69;37.93;100097.38;4496567;31;34258;-74
2023/07/09 06:40:20;;;;;;;;;;;;;;;27.91;35.66;100091.22;4497842;31;33507;-75
2023/07/09 06:42:49;;;;;;;;;;;;;;;27.89;35.35;100095.00;4501999;31;33989;-74
2023/07/09 06:45:22;;;;;;;;;;;;;;;27.51;36.83;100088.13;4501809;31;34309;-75
2023/07/09 06:47:52;;;;;;;;;;;;;;;27.72;37.71;100093.63;4503311;31;34495;-75
2023/07/09 06:50:21;;;;;;;;;;;;;;;28.14;36.59;100084.03;4499082;31;33129;-75
2023/07/09 06:52:51;;;;;;;;;;;;;;;28.27;37.74;100087.44;4494943;31;33164;-75
2023/07/09 06:55:20;;;;;;;;;;;;;;;28.19;36.04;100092.50;4494589;31;35014;-76
2023/07/09 06:57:51;;;;;;;;;;;;;;;28.19;34.44;100089.84;4509339;31;33831;-74
2023/07/09 07:00:21;;;;;;;;;;;;;;;28.45;34.77;100092.25;4509258;31;33580;-75
2023/07/09 07:02:54;;;;;;;;;;;;;;;28.48;34.76;100095.53;4508938;31;33716;-75
2023/07/09 07:05:28;;;;;;;;;;;;;;;28.47;35.59;100088.50;4496308;31;33986;-76
2023/07/09 07:07:57;;;;;;;;;;;;;;;28.69;34.00;100094.75;4499923;31;33882;-75
2023/07/09 07:10:29;;;;;;;;;;;;;;;28.67;32.62;100105.53;4505453;31;33027;-76
2023/07/09 07:12:58;;;;;;;;;;;;;;;28.65;32.37;100098.63;4497607;31;34887;-75
2023/07/09 07:15:28;;;;;;;;;;;;;;;28.82;32.21;100095.41;4497110;31;34026;-75
2023/07/09 07:17:58;;;;;;;;;;;;;;;28.88;32.12;100094.91;4496820;31;34951;-75
2023/07/09 07:20:28;;;;;;;;;;;;;;;28.76;31.98;100087.09;4501692;31;33369;-76
2023/07/09 07:22:57;;;;;;;;;;;;;;;28.81;31.61;100095.56;4496911;31;33127;-76
2023/07/09 07:25:32;;;;;;;;;;;;;;;28.84;31.70;100090.78;4496181;31;34115;-76
2023/07/09 07:28:00;;;;;;;;;;;;;;;28.83;32.57;100088.28;4506412;31;33817;-75
2023/07/09 07:30:35;;;;;;;;;;;;;;;29.00;32.25;100084.19;4504036;31;33112;-75
2023/07/09 07:33:05;;;;;;;;;;;;;;;28.99;31.61;100080.66;4498427;31;34862;-76
2023/07/09 07:35:43;;;;;;;;;;;;;;;28.96;31.94;100088.09;4497978;31;34913;-76
2023/07/09 07:38:32;;;;;;;;;;;;;;;28.98;31.99;100086.97;4508650;31;34096;-75
2023/07/09 07:41:07;;;;;;;;;;;;;;;28.90;33.02;100082.28;4497346;31;33451;-76
2023/07/09 07:43:37;;;;;;;;;;;;;;;29.12;33.13;100094.72;4497161;31;34814;-75
2023/07/09 07:46:09;;;;;;;;;;;;;;;28.70;33.76;100089.25;4500151;31;34052;-75
2023/07/09 07:48:43;;;;;;;;;;;;;;;29.08;32.29;100087.91;4499963;31;33864;-75
2023/07/09 07:51:12;;;;;;;;;;;;;;;29.30;32.32;100086.94;4495427;31;33387;-75
2023/07/09 07:53:42;;;;;;;;;;;;;;;29.28;32.58;100086.22;4494014;31;33903;-76
2023/07/09 07:56:13;;;;;;;;;;;;;;;29.08;32.77;100089.75;4499224;31;33581;-75
2023/07/09 07:58:44;;;;;;;;;;;;;;;29.26;32.70;100088.22;4495219;31;34320;-75
2023/07/09 08:01:14;;;;;;;;;;;;;;;29.14;32.07;100090.09;4498754;31;33391;-74
2023/07/09 08:03:48;;;;;;;;;;;;;;;29.44;30.95;100087.59;4492647;31;33958;-74
2023/07/09 08:06:16;;;;;;;;;;;;;;;29.75;30.67;100081.31;4494798;31;35067;-75
2023/07/09 08:08:45;;;;;;;;;;;;;;;29.36;31.42;100088.25;4501776;31;34895;-76
2023/07/09 08:11:17;;;;;;;;;;;;;;;29.58;31.00;100089.09;4494145;31;33286;-77
2023/07/09 08:13:46;;;;;;;;;;;;;;;29.47;29.91;100092.69;4499259;31;34364;-75
2023/07/09 08:16:19;;;;;;;;;;;;;;;29.46;31.11;100083.81;4495919;31;33655;-75
2023/07/09 08:18:54;;;;;;;;;;;;;;;29.59;31.60;100080.91;4499428;31;33837;-75
2023/07/09 08:24:02;;;;;;;;;;;;;;;29.58;31.74;100083.75;4495233;31;34281;-76
2023/07/09 08:26:32;;;;;;;;;;;;;;;29.89;30.96;100088.13;4493938;31;34226;-78
2023/07/09 08:29:05;;;;;;;;;;;;;;;30.11;30.51;100083.56;4498892;31;35036;-77
2023/07/09 08:31:37;;;;;;;;;;;;;;;29.94;30.88;100080.56;4502236;31;34233;-75
2023/07/09 08:34:07;;;;;;;;;;;;;;;30.18;30.41;100082.03;4495986;31;34621;-75
2023/07/09 08:36:36;;;;;;;;;;;;;;;30.08;29.91;100081.97;4497070;31;34441;-78
2023/07/09 08:39:06;;;;;;;;;;;;;;;29.89;30.14;100076.56;4497586;31;34859;-76
2023/07/09 08:41:45;;;;;;;;;;;;;;;29.76;30.67;100077.66;4493741;31;34466;-75
2023/07/09 08:44:28;;;;;;;;;;;;;;;29.84;29.19;100082.34;4502046;31;33561;-73
2023/07/09 08:47:03;;;;;;;;;;;;;;;29.91;29.86;100080.84;4495615;31;33800;-75
2023/07/09 08:49:39;;;;;;;;;;;;;;;29.99;29.18;100080.16;4494390;31;34852;-76
2023/07/09 08:52:11;;;;;;;;;;;;;;;29.82;28.63;100078.97;4507486;31;32839;-74
2023/07/09 08:54:42;;;;;;;;;;;;;;;30.12;28.09;100075.38;4496099;31;34291;-76
2023/07/09 08:57:16;;;;;;;;;;;;;;;30.04;27.60;100074.41;4502753;31;34080;-76
2023/07/09 08:59:46;;;;;;;;;;;;;;;30.28;27.78;100079.41;4493987;31;34323;-76
2023/07/09 09:02:18;;;;;;;;;;;;;;;30.30;27.39;100075.63;4493489;31;33390;-76
2023/07/09 09:04:51;;;;;;;;;;;;;;;30.21;27.73;100071.06;4495898;31;34549;-75
2023/07/09 09:07:24;;;;;;;;;;;;;;;30.22;28.53;100071.91;4505281;31;33676;-75
2023/07/09 09:10:04;;;;;;;;;;;;;;;30.40;28.06;100075.63;4499016;31;33781;-74
2023/07/09 09:12:37;;;;;;;;;;;;;;;30.37;28.56;100073.22;4493388;31;34001;-76
2023/07/09 09:15:18;;;;;;;;;;;;;;;30.36;28.28;100064.34;4499100;31;34053;-77
2023/07/09 09:17:49;;;;;;;;;;;;;;;30.33;29.42;100075.34;4497179;31;34963;-76
2023/07/09 09:20:22;;;;;;;;;;;;;;;30.26;28.54;100074.19;4500421;31;35361;-76
2023/07/09 09:22:55;;;;;;;;;;;;;;;30.24;28.67;100073.44;4502682;31;33087;-76
2023/07/09 09:25:32;;;;;;;;;;;;;;;30.59;29.12;100067.63;4494357;31;34979;-75
2023/07/09 09:28:02;;;;;;;;;;;;;;;30.73;27.04;100078.88;4493844;31;34352;-76
2023/07/09 09:30:31;;;;;;;;;;;;;;;30.92;27.98;100068.19;4506310;31;34150;-77
2023/07/09 09:33:07;;;;;;;;;;;;;;;31.03;27.19;100073.41;4497002;31;34053;-75
2023/07/09 09:35:44;;;;;;;;;;;;;;;31.21;28.53;100070.84;4503555;31;34262;-75
2023/07/09 09:38:14;;;;;;;;;;;;;;;31.39;27.70;100073.66;4493903;31;35034;-76
2023/07/09 09:40:43;;;;;;;;;;;;;;;31.29;28.44;100075.50;4500561;31;33722;-77
2023/07/09 09:43:15;;;;;;;;;;;;;;;31.73;28.29;100074.97;4493730;31;33925;-75
2023/07/09 09:45:45;;;;;;;;;;;;;;;31.43;28.16;100071.53;4494113;31;33794;-76
2023/07/09 09:48:15;;;;;;;;;;;;;;;31.38;29.00;100077.28;4500669;31;34677;-76
2023/07/09 09:50:51;;;;;;;;;;;;;;;31.52;28.84;100072.50;4495407;31;33713;-75
2023/07/09 09:53:21;;;;;;;;;;;;;;;31.77;26.80;100061.09;4497832;31;34848;-76
2023/07/09 09:55:53;;;;;;;;;;;;;;;31.85;27.53;100063.91;4496077;31;34176;-75
2023/07/09 09:58:21;;;;;;;;;;;;;;;31.99;27.51;100065.28;4497616;31;35167;-74
2023/07/09 10:00:52;;;;;;;;;;;;;;;32.17;26.49;100073.38;4498071;31;32431;-75
2023/07/09 10:03:37;;;;;;;;;;;;;;;32.24;26.13;100069.09;4493885;31;31565;-75
2023/07/09 10:06:09;;;;;;;;;;;;;;;32.21;25.45;100064.03;4503271;31;34164;-74
2023/07/09 10:08:49;;;;;;;;;;;;;;;31.97;26.06;100067.28;4498688;31;34779;-77
2023/07/09 10:11:19;;;;;;;;;;;;;;;31.82;26.63;100063.34;4498036;31;34405;-74
2023/07/09 10:13:49;;;;;;;;;;;;;;;31.85;26.66;100065.75;4496157;31;32453;-75
2023/07/09 10:16:19;;;;;;;;;;;;;;;31.95;25.86;100057.69;4492250;31;32390;-74
2023/07/09 10:18:51;;;;;;;;;;;;;;;31.78;25.70;100052.06;4507633;31;35240;-74
2023/07/09 10:21:24;;;;;;;;;;;;;;;31.81;26.13;100056.28;4501056;31;33716;-75
2023/07/09 10:23:59;;;;;;;;;;;;;;;32.09;26.13;100062.56;4501470;31;33926;-75
2023/07/09 10:26:31;;;;;;;;;;;;;;;32.38;26.45;100061.50;4491555;31;33169;-76
2023/07/09 10:29:09;;;;;;;;;;;;;;;32.27;26.90;100060.72;4493073;31;33876;-76
2023/07/09 10:31:40;;;;;;;;;;;;;;;31.22;27.82;100061.84;4498154;31;33856;-77
2023/07/09 10:34:17;;;;;;;;;;;;;;;32.00;26.22;100058.06;4496231;31;33102;-76
2023/07/09 10:36:53;;;;;;;;;;;;;;;31.95;27.52;100049.63;4499636;31;34873;-76
2023/07/09 10:39:23;;;;;;;;;;;;;;;31.90;27.09;100055.41;4497862;31;33966;-75
2023/07/09 10:41:52;;;;;;;;;;;;;;;31.89;28.28;100059.94;4493185;31;34041;-75
2023/07/09 10:44:21;;;;;;;;;;;;;;;32.01;28.54;100057.91;4494592;31;33289;-78
2023/07/09 10:46:51;;;;;;;;;;;;;;;32.27;27.60;100058.03;4500427;31;33484;-77
2023/07/09 10:49:20;;;;;;;;;;;;;;;32.69;28.73;100056.63;4509046;31;34337;-76
2023/07/09 10:51:54;;;;;;;;;;;;;;;33.14;26.54;100050.31;4493749;31;34417;-76
2023/07/09 10:54:25;;;;;;;;;;;;;;;33.27;26.40;100052.56;4492353;31;32670;-77
2023/07/09 10:56:57;;;;;;;;;;;;;;;32.80;25.89;100055.56;4502533;31;34367;-78
2023/07/09 10:59:27;;;;;;;;;;;;;;;32.64;25.93;100046.34;4508132;31;34235;-76
2023/07/09 11:02:18;;;;;;;;;;;;;;;32.54;26.52;100058.19;4497678;31;34522;-76
2023/07/09 11:04:48;;;;;;;;;;;;;;;32.37;27.53;100047.22;4492367;31;33720;-76
2023/07/09 11:07:23;;;;;;;;;;;;;;;32.65;26.50;100056.09;4496046;31;34211;-75
2023/07/09 11:09:54;;;;;;;;;;;;;;;32.54;23.38;100053.63;4503604;31;35256;-78
2023/07/09 11:12:29;;;;;;;;;;;;;;;32.63;23.32;100050.03;4496296;31;34911;-75
2023/07/09 11:15:03;;;;;;;;;;;;;;;32.41;25.06;100039.72;4500305;31;32315;-76
2023/07/09 11:17:33;;;;;;;;;;;;;;;32.71;27.04;100051.94;4492037;31;34247;-75
2023/07/09 11:20:08;;;;;;;;;;;;;;;32.43;27.03;100041.25;4494861;31;33355;-76
2023/07/09 11:22:40;;;;;;;;;;;;;;;32.45;27.41;100047.34;4494008;31;34294;-76
2023/07/09 11:25:14;;;;;;;;;;;;;;;32.68;26.48;100036.97;4502548;31;32625;-77
2023/07/09 11:27:49;;;;;;;;;;;;;;;32.98;26.11;100045.62;4498149;31;33636;-75
2023/07/09 11:30:22;;;;;;;;;;;;;;;33.22;25.78;100036.06;4498071;31;33605;-77
2023/07/09 11:32:53;;;;;;;;;;;;;;;33.37;25.63;100029.12;4493541;31;34936;-77
2023/07/09 11:35:27;;;;;;;;;;;;;;;33.45;25.13;100023.78;4495337;31;33014;-75
2023/07/09 11:38:18;;;;;;;;;;;;;;;33.69;24.08;100024.94;4504622;31;33835;-76
2023/07/09 11:40:47;;;;;;;;;;;;;;;33.86;23.89;100034.75;4499499;31;34330;-76
2023/07/09 11:43:32;;;;;;;;;;;;;;;33.87;22.13;100033.75;4492478;31;34116;-77
2023/07/09 11:46:04;;;;;;;;;;;;;;;33.48;21.41;100031.53;4497343;31;32719;-75
2023/07/09 11:48:36;;;;;;;;;;;;;;;33.85;21.24;100026.84;4493352;31;34965;-76
2023/07/09 11:51:10;;;;;;;;;;;;;;;34.27;21.59;100020.59;4494042;31;33895;-76
2023/07/09 11:53:43;;;;;;;;;;;;;;;34.81;22.27;100018.31;4499426;31;34055;-77
2023/07/09 11:56:12;;;;;;;;;;;;;;;35.05;21.10;100029.06;4495079;31;33896;-77
2023/07/09 11:58:51;;;;;;;;;;;;;;;34.73;22.22;100015.62;4498912;31;32527;-76
2023/07/09 12:01:25;;;;;;;;;;;;;;;34.57;22.46;100022.63;4495302;31;34911;-77
2023/07/09 12:03:55;;;;;;;;;;;;;;;34.72;22.44;100020.16;4500124;31;34164;-75
2023/07/09 12:06:29;;;;;;;;;;;;;;;34.61;21.98;100007.03;4498961;31;32479;-76
2023/07/09 12:09:00;;;;;;;;;;;;;;;34.44;23.45;100013.37;4494954;31;34713;-77
2023/07/09 12:11:29;;;;;;;;;;;;;;;34.40;22.57;100010.16;4497904;31;33723;-76
2023/07/09 12:14:01;;;;;;;;;;;;;;;34.84;23.00;100008.03;4492581;31;34317;-75
2023/07/09 12:16:32;;;;;;;;;;;;;;;35.01;22.05;100011.56;4499045;31;33752;-75
2023/07/09 12:19:01;;;;;;;;;;;;;;;34.82;21.18;100009.22;4497717;31;33146;-76
2023/07/09 12:21:31;;;;;;;;;;;;;;;34.78;21.56;100008.69;4493486;31;34801;-76
2023/07/09 12:24:01;;;;;;;;;;;;;;;35.04;21.38;100002.28;4492243;31;35281;-76
2023/07/09 12:26:32;;;;;;;;;;;;;;;35.30;21.36;100006.63;4493001;31;32940;-78
2023/07/09 12:29:01;;;;;;;;;;;;;;;35.08;21.27;100005.47;4498182;31;34329;-76
2023/07/09 12:31:32;;;;;;;;;;;;;;;35.36;20.02;99995.97;4492980;31;35147;-76
2023/07/09 12:34:01;;;;;;;;;;;;;;;35.42;20.80;99992.59;4491688;31;34198;-75
2023/07/09 12:36:30;;;;;;;;;;;;;;;35.76;20.05;99985.22;4465698;31;1325329;-76
2023/07/09 12:39:06;;;;;;;;;;;;;;;35.54;20.59;99995.75;4513577;31;35302;-76
2023/07/09 12:41:38;;;;;;;;;;;;;;;35.23;20.87;99991.16;4510311;31;33591;-75
2023/07/09 12:44:26;;;;;;;;;;;;;;;35.24;20.68;99987.41;4499521;31;34431;-75
2023/07/09 12:46:55;;;;;;;;;;;;;;;34.74;21.36;99984.94;4492697;31;34297;-76
2023/07/09 12:49:29;;;;;;;;;;;;;;;34.54;21.72;99984.44;4480314;31;33641;-75
2023/07/09 12:51:58;;;;;;;;;;;;;;;34.57;21.41;99984.09;4500007;31;35250;-77
2023/07/09 12:54:31;;;;;;;;;;;;;;;34.77;21.39;99982.78;4494462;31;34663;-76
2023/07/09 12:57:01;;;;;;;;;;;;;;;34.64;20.71;99974.34;4494873;31;33791;-76
2023/07/09 12:59:38;;;;;;;;;;;;;;;34.80;20.57;99973.50;4496308;31;34312;-77
2023/07/09 13:02:15;;;;;;;;;;;;;;;35.23;21.06;99972.25;4494191;31;34007;-75
2023/07/09 13:04:50;;;;;;;;;;;;;;;35.33;20.32;99974.75;4500198;31;34847;-77